Darstellungsparameter: Aktuell verwendete Einstellungen:
Skalierung der Graphiken ... ?
xyx+y,   Skalierungsfaktor:      Skalierung: Modus: x, Faktor: 1
Darstellungszeitraum ... ?
Vom - - bis: - -   Zeitraum: 09.06.2011 - 11.06.2011
Min/Max/Avg-Anzeige ... ?
Zeige MMA aktuell
Zeige MMA Monat
Zeige MMA alles
Zeige --A aktuell
Zeige --A Monat
Zeige --A alles
Keine MMA-Anzeige
MMA:
Keine MMA-Graphiken
MMA-Basis: 09.06.2011 - 11.06.2011
Quicknavigation für Darstellung... ?
Tage:      1T, 2T, 3T, 5T -1T -2T -3T -5T +1T +2T +3T +5T
Wochen: 1W, 2W, 3W -1W -2W -3W +1W +2W +3W
Monate: 1M, 3M, 6M -1M -3M -6M +1M +3M +6M
Jahre:    1J, 3J, 5J, 10J -1J -3J -5J -10J +1J +3J +5J +10J
Nutze für die Darstellung ... ?
Originaldaten oder Mittelwerte auf ...
Stundenbasis Tagesbasis Wochenbasis
Monatsbasis Jahresbasis      Datenbasis: Original-Daten
Darstellen als:
Statistik (Auto) Statistik J:M      Darstellung:
Zur Graphik,    zurück zur Übersicht aller Sensoren.
 
Tabellarische Datenbersicht: ?
 
Sensor: Nr:Datum:Temp:Abs-Feuchte:Windchill:Wind:
Aussen-T/F 1 09-06-2011 00:09:04 13.4 C 7.79 g/m*3 13.4 C 0 km/h
2 09-06-2011 00:21:04 13.4 C 7.79 g/m*3 13.4 C 0 km/h
3 09-06-2011 00:33:04 13.4 C 7.79 g/m*3 13.4 C 0 km/h
4 09-06-2011 00:45:04 13.4 C 7.79 g/m*3 13.4 C 0 km/h
5 09-06-2011 00:57:05 13.4 C 7.79 g/m*3 13.4 C 0 km/h
6 09-06-2011 01:09:05 13.4 C 7.79 g/m*3 13.4 C 0 km/h
7 09-06-2011 01:21:05 11.7 C 7.64 g/m*3 11.7 C 0 km/h
8 09-06-2011 01:33:05 11.7 C 7.64 g/m*3 11.7 C 0 km/h
9 09-06-2011 01:45:05 11.7 C 7.64 g/m*3 11.7 C 0 km/h
10 09-06-2011 01:57:05 11.1 C 7.55 g/m*3 11.1 C 0 km/h
11 09-06-2011 02:09:05 11.1 C 7.55 g/m*3 11.1 C 0 km/h
12 09-06-2011 02:21:05 11.1 C 7.55 g/m*3 11.1 C 0 km/h
13 09-06-2011 02:33:05 11.1 C 7.55 g/m*3 11.1 C 0 km/h
14 09-06-2011 02:45:05 11.1 C 7.55 g/m*3 11.1 C 0 km/h
15 09-06-2011 02:57:05 11.1 C 7.55 g/m*3 11.1 C 0 km/h
16 09-06-2011 03:09:05 11.1 C 7.55 g/m*3 11.1 C 0 km/h
17 09-06-2011 03:21:05 11.1 C 7.55 g/m*3 11.1 C 0 km/h
18 09-06-2011 03:33:05 11.1 C 7.55 g/m*3 11.1 C 0 km/h
19 09-06-2011 03:45:05 11.1 C 7.55 g/m*3 11.1 C 0 km/h
20 09-06-2011 03:57:05 11.1 C 7.55 g/m*3 11.1 C 0 km/h
21 09-06-2011 04:09:05 11.1 C 7.55 g/m*3 11.1 C 0 km/h
22 09-06-2011 04:21:05 11.1 C 7.55 g/m*3 11.1 C 0 km/h
23 09-06-2011 04:33:05 11.1 C 7.55 g/m*3 11.1 C 0 km/h
24 09-06-2011 04:45:05 11.1 C 7.55 g/m*3 11.1 C 0 km/h
25 09-06-2011 04:57:06 11.1 C 7.55 g/m*3 11.1 C 0 km/h
Sensor: Nr:Datum:Temp:Abs-Feuchte:Windchill:Wind:
Aussen-T/F 26 09-06-2011 05:09:06 11.1 C 7.55 g/m*3 11.1 C 0 km/h
27 09-06-2011 05:21:06 11.1 C 7.55 g/m*3 11.1 C 0 km/h
28 09-06-2011 05:33:06 11.1 C 7.55 g/m*3 11.1 C 0 km/h
29 09-06-2011 05:45:06 11.1 C 7.55 g/m*3 11.1 C 0 km/h
30 09-06-2011 05:57:06 11.1 C 7.55 g/m*3 11.1 C 0 km/h
31 09-06-2011 06:09:06 11.1 C 7.55 g/m*3 11.1 C 0 km/h
32 09-06-2011 06:21:06 8.8 C 7.66 g/m*3 8.8 C 0 km/h
33 09-06-2011 06:33:06 8.7 C 7.61 g/m*3 8.7 C 0 km/h
34 09-06-2011 06:45:02 8.6 C 7.56 g/m*3 8.6 C 0 km/h
35 09-06-2011 06:57:02 8.8 C 7.66 g/m*3 8.8 C 0 km/h
36 09-06-2011 07:09:02 9.3 C 7.91 g/m*3 9.3 C 0 km/h
37 09-06-2011 07:21:02 9.5 C 8.01 g/m*3 9.5 C 0 km/h
38 09-06-2011 07:33:02 9.7 C 8.11 g/m*3 9.7 C 0 km/h
39 09-06-2011 07:45:02 9.7 C 8.11 g/m*3 9.7 C 0 km/h
40 09-06-2011 07:57:02 9.7 C 8.11 g/m*3 9.7 C 0 km/h
41 09-06-2011 08:09:01 9.7 C 8.11 g/m*3 9.7 C 0 km/h
42 09-06-2011 08:21:02 9.7 C 8.11 g/m*3 9.7 C 0 km/h
43 09-06-2011 08:33:02 9.7 C 8.11 g/m*3 9.7 C 0 km/h
44 09-06-2011 08:45:02 9.7 C 8.11 g/m*3 9.7 C 0 km/h
45 09-06-2011 08:57:02 9.7 C 8.11 g/m*3 9.7 C 0 km/h
46 09-06-2011 09:09:03 9.7 C 8.11 g/m*3 9.7 C 0 km/h
47 09-06-2011 09:21:02 9.7 C 8.11 g/m*3 9.7 C 0 km/h
48 09-06-2011 09:33:03 9.7 C 8.11 g/m*3 9.7 C 0 km/h
49 09-06-2011 09:45:02 9.7 C 8.11 g/m*3 9.7 C 0 km/h
50 09-06-2011 09:57:03 9.7 C 8.11 g/m*3 9.7 C 0 km/h
Sensor: Nr:Datum:Temp:Abs-Feuchte:Windchill:Wind:
Aussen-T/F 51 09-06-2011 10:09:01 9.7 C 8.11 g/m*3 9.7 C 0 km/h
52 09-06-2011 10:21:02 9.7 C 8.11 g/m*3 9.7 C 0 km/h
53 09-06-2011 10:33:02 9.7 C 8.11 g/m*3 9.7 C 0 km/h
54 09-06-2011 10:58:02 9.7 C 8.11 g/m*3 9.7 C 0 km/h
55 09-06-2011 11:10:03 9.7 C 8.11 g/m*3 9.7 C 0 km/h
56 09-06-2011 11:22:02 9.7 C 8.11 g/m*3 9.7 C 0 km/h
57 09-06-2011 11:34:02 9.7 C 8.11 g/m*3 9.7 C 0 km/h
58 09-06-2011 11:46:02 9.7 C 8.11 g/m*3 9.7 C 0 km/h
59 09-06-2011 11:58:02 18.6 C 6.37 g/m*3 18.6 C 0 km/h
60 09-06-2011 12:10:03 18.8 C 6.76 g/m*3 18.8 C 0 km/h
61 09-06-2011 12:22:03 18.3 C 6.1 g/m*3 18.3 C 0 km/h
62 09-06-2011 12:34:02 18.1 C 8.03 g/m*3 18.1 C 0 km/h
63 09-06-2011 12:46:02 20 C 6.91 g/m*3 20 C 0 km/h
64 09-06-2011 12:58:03 20.9 C 6.56 g/m*3 20.9 C 0 km/h
65 09-06-2011 13:10:01 20.9 C 6.19 g/m*3 20.9 C 0 km/h
66 09-06-2011 13:22:02 20.1 C 6.78 g/m*3 20.1 C 0 km/h
67 09-06-2011 13:34:02 20.1 C 6.61 g/m*3 20.1 C 0 km/h
68 09-06-2011 13:46:02 18.8 C 6.76 g/m*3 18.8 C 0 km/h
69 09-06-2011 13:58:02 17.1 C 7.57 g/m*3 17.1 C 0 km/h
70 09-06-2011 14:10:03 16.7 C 6.54 g/m*3 16.7 C 0 km/h
71 09-06-2011 14:22:02 16.2 C 7.58 g/m*3 16.2 C 0 km/h
72 09-06-2011 14:34:02 15.6 C 7.98 g/m*3 15.6 C 0 km/h
73 09-06-2011 14:46:01 15.5 C 8.06 g/m*3 15.5 C 0 km/h
74 09-06-2011 14:58:01 15.7 C 8.16 g/m*3 15.7 C 0 km/h
75 09-06-2011 15:10:02 16.2 C 8.14 g/m*3 16.2 C 0 km/h
Sensor: Nr:Datum:Temp:Abs-Feuchte:Windchill:Wind:
Aussen-T/F 76 09-06-2011 15:22:01 17 C 8.68 g/m*3 17 C 0 km/h
77 09-06-2011 15:34:01 17.3 C 8.25 g/m*3 17.3 C 0 km/h
78 09-06-2011 15:46:01 17.9 C 8.24 g/m*3 17.9 C 0 km/h
79 09-06-2011 15:58:01 18.2 C 8.39 g/m*3 18.2 C 0 km/h
80 09-06-2011 16:10:02 17.6 C 8.7 g/m*3 17.6 C 0 km/h
81 09-06-2011 16:22:01 17.2 C 8.35 g/m*3 17.2 C 0 km/h
82 09-06-2011 16:34:01 17.1 C 8.44 g/m*3 17.1 C 0 km/h
83 09-06-2011 16:46:01 16.8 C 9.01 g/m*3 16.8 C 0 km/h
84 09-06-2011 16:58:01 16.6 C 9.18 g/m*3 16.6 C 0 km/h
85 09-06-2011 17:10:01 16.5 C 8.99 g/m*3 16.5 C 0 km/h
86 09-06-2011 17:22:02 16.8 C 9.01 g/m*3 16.8 C 0 km/h
87 09-06-2011 17:34:01 16.8 C 9.01 g/m*3 16.8 C 0 km/h
88 09-06-2011 17:46:02 17.2 C 8.93 g/m*3 17.2 C 0 km/h
89 09-06-2011 17:58:02 17.8 C 8.8 g/m*3 17.8 C 0 km/h
90 09-06-2011 18:10:02 20.4 C 7.78 g/m*3 20.4 C 0 km/h
91 09-06-2011 18:22:02 21.3 C 6.9 g/m*3 21.3 C 0 km/h
92 09-06-2011 18:34:02 23.3 C 6.69 g/m*3 23.3 C 0 km/h
93 09-06-2011 18:46:02 22.2 C 5.5 g/m*3 22.2 C 0 km/h
94 09-06-2011 18:58:02 22.5 C 6.19 g/m*3 22.5 C 0 km/h
95 09-06-2011 19:10:01 22.3 C 7.5 g/m*3 22.3 C 0 km/h
96 09-06-2011 19:22:02 22.3 C 7.5 g/m*3 22.3 C 0 km/h
97 09-06-2011 19:34:02 22.3 C 7.5 g/m*3 22.3 C 0 km/h
98 09-06-2011 19:46:02 22.3 C 7.5 g/m*3 22.3 C 0 km/h
99 09-06-2011 19:58:02 22.3 C 7.5 g/m*3 22.3 C 0 km/h
100 09-06-2011 20:10:02 22.3 C 7.5 g/m*3 22.3 C 0 km/h
Sensor: Nr:Datum:Temp:Abs-Feuchte:Windchill:Wind:
Aussen-T/F 101 09-06-2011 20:22:02 22.3 C 7.5 g/m*3 22.3 C 0 km/h
102 09-06-2011 20:34:02 22.3 C 7.5 g/m*3 22.3 C 0 km/h
103 09-06-2011 20:46:02 22.3 C 7.5 g/m*3 22.3 C 0 km/h
104 09-06-2011 20:58:02 22.3 C 7.5 g/m*3 22.3 C 0 km/h
105 09-06-2011 21:10:02 13 C 9.3 g/m*3 13 C 0 km/h
106 09-06-2011 21:22:01 12.9 C 9.47 g/m*3 12.9 C 0 km/h
107 09-06-2011 21:34:02 12.9 C 9.58 g/m*3 12.9 C 0 km/h
108 09-06-2011 21:46:02 12.5 C 9.46 g/m*3 12.5 C 0 km/h
109 09-06-2011 21:58:02 12.4 C 9.4 g/m*3 12.4 C 0 km/h
110 09-06-2011 22:10:02 12.4 C 9.4 g/m*3 12.4 C 0 km/h
111 09-06-2011 22:22:01 11.5 C 8.99 g/m*3 11.5 C 0 km/h
112 09-06-2011 22:35:03 11.5 C 8.99 g/m*3 11.5 C 0 km/h
113 09-06-2011 22:47:03 11.4 C 8.93 g/m*3 11.4 C 0 km/h
114 09-06-2011 22:59:03 11.4 C 8.93 g/m*3 11.4 C 0 km/h
115 09-06-2011 23:11:03 11.4 C 8.93 g/m*3 11.4 C 0 km/h
116 09-06-2011 23:23:03 11.4 C 8.93 g/m*3 11.4 C 0 km/h
117 09-06-2011 23:35:03 11.4 C 8.93 g/m*3 11.4 C 0 km/h
118 09-06-2011 23:47:03 11.4 C 8.93 g/m*3 11.4 C 0 km/h
119 09-06-2011 23:59:03 11.4 C 8.93 g/m*3 11.4 C 0 km/h
120 10-06-2011 00:11:03 11.4 C 8.93 g/m*3 11.4 C 0 km/h
121 10-06-2011 00:23:03 11.4 C 8.93 g/m*3 11.4 C 0 km/h
122 10-06-2011 00:35:03 11.4 C 8.93 g/m*3 11.4 C 0 km/h
123 10-06-2011 00:47:04 11.4 C 8.93 g/m*3 11.4 C 0 km/h
124 10-06-2011 00:59:04 11.4 C 8.93 g/m*3 11.4 C 0 km/h
125 10-06-2011 01:11:04 11.4 C 8.93 g/m*3 11.4 C 0 km/h
Sensor: Nr:Datum:Temp:Abs-Feuchte:Windchill:Wind:
Aussen-T/F 126 10-06-2011 01:23:04 11.4 C 8.93 g/m*3 11.4 C 0 km/h
127 10-06-2011 01:35:04 11.4 C 8.93 g/m*3 11.4 C 0 km/h
128 10-06-2011 01:47:04 11.4 C 8.93 g/m*3 11.4 C 0 km/h
129 10-06-2011 01:59:04 11.4 C 8.93 g/m*3 11.4 C 0 km/h
130 10-06-2011 02:11:04 11.4 C 8.93 g/m*3 11.4 C 0 km/h
131 10-06-2011 02:23:04 11.4 C 8.93 g/m*3 11.4 C 0 km/h
132 10-06-2011 02:35:04 11.4 C 8.93 g/m*3 11.4 C 0 km/h
133 10-06-2011 02:47:04 11.4 C 8.93 g/m*3 11.4 C 0 km/h
134 10-06-2011 02:59:04 11.4 C 8.93 g/m*3 11.4 C 0 km/h
135 10-06-2011 03:11:04 11.4 C 8.93 g/m*3 11.4 C 0 km/h
136 10-06-2011 03:23:04 11.4 C 8.93 g/m*3 11.4 C 0 km/h
137 10-06-2011 03:35:04 11.4 C 8.93 g/m*3 11.4 C 0 km/h
138 10-06-2011 03:47:04 11.4 C 8.93 g/m*3 11.4 C 0 km/h
139 10-06-2011 03:59:04 11.4 C 8.93 g/m*3 11.4 C 0 km/h
140 10-06-2011 04:11:04 11.4 C 8.93 g/m*3 11.4 C 0 km/h
141 10-06-2011 04:23:04 11.4 C 8.93 g/m*3 11.4 C 0 km/h
142 10-06-2011 04:35:04 11.4 C 8.93 g/m*3 11.4 C 0 km/h
143 10-06-2011 04:47:04 11.4 C 8.93 g/m*3 11.4 C 0 km/h
144 10-06-2011 04:59:05 11.4 C 8.93 g/m*3 11.4 C 0 km/h
145 10-06-2011 05:11:05 11.4 C 8.93 g/m*3 11.4 C 0 km/h
146 10-06-2011 05:23:05 11.4 C 8.93 g/m*3 11.4 C 0 km/h
147 10-06-2011 05:35:05 11.4 C 8.93 g/m*3 11.4 C 0 km/h
148 10-06-2011 05:47:05 11.4 C 8.93 g/m*3 11.4 C 0 km/h
149 10-06-2011 05:59:05 11.4 C 8.93 g/m*3 11.4 C 0 km/h
150 10-06-2011 06:11:05 11.4 C 8.93 g/m*3 11.4 C 0 km/h
Sensor: Nr:Datum:Temp:Abs-Feuchte:Windchill:Wind:
Aussen-T/F 151 10-06-2011 06:23:05 11.4 C 8.93 g/m*3 11.4 C 0 km/h
152 10-06-2011 06:35:03 11.5 C 9.09 g/m*3 11.5 C 0 km/h
153 10-06-2011 06:47:02 11.8 C 9.26 g/m*3 11.8 C 0 km/h
154 10-06-2011 06:59:02 12 C 9.27 g/m*3 12 C 0 km/h
155 10-06-2011 07:11:03 12.1 C 9.33 g/m*3 12.1 C 0 km/h
156 10-06-2011 07:23:02 12.5 C 9.46 g/m*3 12.5 C 0 km/h
157 10-06-2011 07:35:02 12.5 C 9.46 g/m*3 12.5 C 0 km/h
158 10-06-2011 07:47:01 13 C 9.07 g/m*3 13 C 0 km/h
159 10-06-2011 07:59:01 13 C 9.07 g/m*3 13 C 0 km/h
160 10-06-2011 08:11:02 13 C 9.07 g/m*3 13 C 0 km/h
161 10-06-2011 08:23:01 13 C 9.07 g/m*3 13 C 0 km/h
162 10-06-2011 08:35:02 13 C 9.07 g/m*3 13 C 0 km/h
163 10-06-2011 08:47:02 13 C 9.07 g/m*3 13 C 0 km/h
164 10-06-2011 08:59:02 13 C 9.07 g/m*3 13 C 0 km/h
165 10-06-2011 09:11:02 13 C 9.07 g/m*3 13 C 0 km/h
166 10-06-2011 09:23:01 13 C 9.07 g/m*3 13 C 0 km/h
167 10-06-2011 09:35:02 13 C 9.07 g/m*3 13 C 0 km/h
168 10-06-2011 09:47:02 13 C 9.07 g/m*3 13 C 0 km/h
169 10-06-2011 09:59:02 13 C 9.07 g/m*3 13 C 0 km/h
170 10-06-2011 10:11:02 13 C 9.07 g/m*3 13 C 0 km/h
171 10-06-2011 10:23:01 13 C 9.07 g/m*3 13 C 0 km/h
172 10-06-2011 10:35:02 13 C 9.07 g/m*3 13 C 0 km/h
173 10-06-2011 10:47:01 13 C 9.07 g/m*3 13 C 0 km/h
174 10-06-2011 10:59:01 13 C 9.07 g/m*3 13 C 0 km/h
175 10-06-2011 11:11:02 13 C 9.07 g/m*3 13 C 0 km/h
Sensor: Nr:Datum:Temp:Abs-Feuchte:Windchill:Wind:
Aussen-T/F 176 10-06-2011 11:23:02 13 C 9.07 g/m*3 13 C 0 km/h
177 10-06-2011 11:35:02 13 C 9.07 g/m*3 13 C 0 km/h
178 10-06-2011 11:47:01 13 C 9.07 g/m*3 13 C 0 km/h
179 10-06-2011 11:59:01 13 C 9.07 g/m*3 13 C 0 km/h
180 10-06-2011 12:11:02 13 C 9.07 g/m*3 13 C 0 km/h
181 10-06-2011 12:23:02 13 C 9.07 g/m*3 13 C 0 km/h
182 10-06-2011 12:35:01 13 C 9.07 g/m*3 13 C 0 km/h
183 10-06-2011 12:47:02 13 C 9.07 g/m*3 13 C 0 km/h
184 10-06-2011 12:59:02 13 C 9.07 g/m*3 13 C 0 km/h
185 10-06-2011 13:11:01 13 C 9.07 g/m*3 13 C 0 km/h
186 10-06-2011 13:23:02 13 C 9.07 g/m*3 13 C 0 km/h
187 10-06-2011 13:35:01 13 C 9.07 g/m*3 13 C 0 km/h
188 10-06-2011 13:47:02 13 C 9.07 g/m*3 13 C 0 km/h
189 10-06-2011 13:59:02 13 C 9.07 g/m*3 13 C 0 km/h
190 10-06-2011 14:11:01 13 C 9.07 g/m*3 13 C 0 km/h
191 10-06-2011 14:23:01 13 C 9.07 g/m*3 13 C 0 km/h
192 10-06-2011 14:35:01 13 C 9.07 g/m*3 13 C 0 km/h
193 10-06-2011 14:47:02 13 C 9.07 g/m*3 13 C 0 km/h
194 10-06-2011 14:59:02 13 C 9.07 g/m*3 13 C 0 km/h
195 10-06-2011 15:11:02 13 C 9.07 g/m*3 13 C 0 km/h
196 10-06-2011 15:23:02 21.5 C 6.03 g/m*3 21.5 C 0 km/h
197 10-06-2011 15:35:02 21.7 C 5.91 g/m*3 21.7 C 0 km/h
198 10-06-2011 15:47:02 22 C 5.43 g/m*3 22 C 0 km/h
199 10-06-2011 15:59:02 24.1 C 5.69 g/m*3 24.1 C 0 km/h
200 10-06-2011 16:11:02 26.7 C 5.06 g/m*3 26.7 C 0 km/h
Sensor: Nr:Datum:Temp:Abs-Feuchte:Windchill:Wind:
Aussen-T/F 201 10-06-2011 16:23:02 27 C 5.15 g/m*3 27 C 0 km/h
202 10-06-2011 16:35:01 24 C 4.35 g/m*3 24 C 0 km/h
203 10-06-2011 16:47:03 27.6 C 5.32 g/m*3 27.6 C 0 km/h
204 10-06-2011 16:59:03 26.3 C 4.95 g/m*3 26.3 C 0 km/h
205 10-06-2011 17:11:03 23.3 C 4.39 g/m*3 23.3 C 0 km/h
206 10-06-2011 17:23:02 22.5 C 4.79 g/m*3 22.5 C 0 km/h
207 10-06-2011 17:35:02 22.5 C 4.79 g/m*3 22.5 C 0 km/h
208 10-06-2011 17:47:02 20.6 C 6.62 g/m*3 20.6 C 0 km/h
209 10-06-2011 17:59:02 19.3 C 7.63 g/m*3 19.3 C 0 km/h
210 10-06-2011 18:11:01 18.8 C 7.57 g/m*3 18.8 C 0 km/h
211 10-06-2011 18:23:01 18.1 C 6.18 g/m*3 18.1 C 0 km/h
212 10-06-2011 18:35:02 18.2 C 6.53 g/m*3 18.2 C 0 km/h
213 10-06-2011 18:47:02 18.2 C 6.53 g/m*3 18.2 C 0 km/h
214 10-06-2011 18:59:02 18.2 C 6.53 g/m*3 18.2 C 0 km/h
215 10-06-2011 19:11:02 18.2 C 6.53 g/m*3 18.2 C 0 km/h
216 10-06-2011 19:23:02 18.2 C 7.77 g/m*3 18.2 C 0 km/h
217 10-06-2011 19:35:02 18.2 C 7.77 g/m*3 18.2 C 0 km/h
218 10-06-2011 19:47:02 18.2 C 7.77 g/m*3 18.2 C 0 km/h
219 10-06-2011 19:59:02 18.2 C 7.77 g/m*3 18.2 C 0 km/h
220 10-06-2011 20:11:02 18.2 C 7.77 g/m*3 18.2 C 0 km/h
221 10-06-2011 20:23:02 18.2 C 7.77 g/m*3 18.2 C 0 km/h
222 10-06-2011 20:35:02 18.2 C 7.77 g/m*3 18.2 C 0 km/h
223 10-06-2011 20:47:01 18.2 C 7.77 g/m*3 18.2 C 0 km/h
224 10-06-2011 20:59:01 18.2 C 7.77 g/m*3 18.2 C 0 km/h
225 10-06-2011 21:11:01 18.2 C 7.77 g/m*3 18.2 C 0 km/h
Sensor: Nr:Datum:Temp:Abs-Feuchte:Windchill:Wind:
Aussen-T/F 226 10-06-2011 21:23:01 18.2 C 7.77 g/m*3 18.2 C 0 km/h
227 10-06-2011 21:35:01 14.3 C 8.72 g/m*3 14.3 C 0 km/h
228 10-06-2011 21:47:01 14.3 C 8.72 g/m*3 14.3 C 0 km/h
229 10-06-2011 21:59:01 14.3 C 8.72 g/m*3 14.3 C 0 km/h
230 10-06-2011 22:11:02 14.4 C 8.9 g/m*3 14.4 C 0 km/h
231 10-06-2011 22:24:03 14.4 C 8.9 g/m*3 14.4 C 0 km/h
232 10-06-2011 22:36:03 14.4 C 8.9 g/m*3 14.4 C 0 km/h
233 10-06-2011 22:48:03 14.4 C 8.9 g/m*3 14.4 C 0 km/h
234 10-06-2011 23:00:03 14.4 C 8.9 g/m*3 14.4 C 0 km/h
235 10-06-2011 23:12:03 14.4 C 8.9 g/m*3 14.4 C 0 km/h
236 10-06-2011 23:24:03 14.4 C 8.9 g/m*3 14.4 C 0 km/h
237 10-06-2011 23:36:03 15.1 C 7.87 g/m*3 15.1 C 0 km/h
238 10-06-2011 23:48:03 15.1 C 7.87 g/m*3 15.1 C 0 km/h
239 11-06-2011 00:00:03 15.1 C 7.87 g/m*3 15.1 C 0 km/h
240 11-06-2011 00:12:03 12.6 C 9.07 g/m*3 12.6 C 0 km/h
241 11-06-2011 00:24:03 12.6 C 9.07 g/m*3 12.6 C 0 km/h
242 11-06-2011 00:36:03 12.6 C 9.07 g/m*3 12.6 C 0 km/h
243 11-06-2011 00:48:03 12.6 C 9.07 g/m*3 12.6 C 0 km/h
244 11-06-2011 01:00:03 12.6 C 9.07 g/m*3 12.6 C 0 km/h
245 11-06-2011 01:12:03 12.6 C 9.07 g/m*3 12.6 C 0 km/h
246 11-06-2011 01:24:03 12.6 C 9.07 g/m*3 12.6 C 0 km/h
247 11-06-2011 01:36:04 12.6 C 9.07 g/m*3 12.6 C 0 km/h
248 11-06-2011 01:48:04 12.6 C 9.07 g/m*3 12.6 C 0 km/h
249 11-06-2011 02:00:04 12.6 C 9.07 g/m*3 12.6 C 0 km/h
250 11-06-2011 02:12:04 12.6 C 9.07 g/m*3 12.6 C 0 km/h
Sensor: Nr:Datum:Temp:Abs-Feuchte:Windchill:Wind:
Aussen-T/F 251 11-06-2011 02:24:04 12.6 C 9.07 g/m*3 12.6 C 0 km/h
252 11-06-2011 02:36:04 12.6 C 9.07 g/m*3 12.6 C 0 km/h
253 11-06-2011 02:48:04 12.6 C 9.07 g/m*3 12.6 C 0 km/h
254 11-06-2011 03:00:04 12.6 C 9.07 g/m*3 12.6 C 0 km/h
255 11-06-2011 03:12:04 12.6 C 9.07 g/m*3 12.6 C 0 km/h
256 11-06-2011 03:24:04 12.6 C 9.07 g/m*3 12.6 C 0 km/h
257 11-06-2011 03:36:04 12.6 C 9.07 g/m*3 12.6 C 0 km/h
258 11-06-2011 03:48:04 12.6 C 9.07 g/m*3 12.6 C 0 km/h
259 11-06-2011 04:00:04 12.6 C 9.07 g/m*3 12.6 C 0 km/h
260 11-06-2011 04:12:04 12.6 C 9.07 g/m*3 12.6 C 0 km/h
261 11-06-2011 04:24:04 12.6 C 9.07 g/m*3 12.6 C 0 km/h
262 11-06-2011 04:36:04 12.6 C 9.07 g/m*3 12.6 C 0 km/h
263 11-06-2011 04:48:04 12.6 C 9.07 g/m*3 12.6 C 0 km/h
264 11-06-2011 05:00:04 12.6 C 9.07 g/m*3 12.6 C 0 km/h
265 11-06-2011 05:12:04 12.6 C 9.07 g/m*3 12.6 C 0 km/h
266 11-06-2011 05:24:04 12.6 C 9.07 g/m*3 12.6 C 0 km/h
267 11-06-2011 05:36:04 12.6 C 9.07 g/m*3 12.6 C 0 km/h
268 11-06-2011 05:48:05 12.6 C 9.07 g/m*3 12.6 C 0 km/h
269 11-06-2011 06:00:05 12.6 C 9.07 g/m*3 12.6 C 0 km/h
270 11-06-2011 06:12:05 12.6 C 9.07 g/m*3 12.6 C 0 km/h
271 11-06-2011 06:24:05 12.6 C 9.07 g/m*3 12.6 C 0 km/h
272 11-06-2011 06:36:05 12.6 C 9.07 g/m*3 12.6 C 0 km/h
273 11-06-2011 06:48:05 12.6 C 9.07 g/m*3 12.6 C 0 km/h
274 11-06-2011 07:00:05 12.6 C 9.07 g/m*3 12.6 C 0 km/h
275 11-06-2011 07:12:05 12.6 C 9.07 g/m*3 12.6 C 0 km/h
Sensor: Nr:Datum:Temp:Abs-Feuchte:Windchill:Wind:
Aussen-T/F 276 11-06-2011 07:24:05 10 C 8.36 g/m*3 10 C 0 km/h
277 11-06-2011 07:36:05 10.5 C 8.73 g/m*3 10.5 C 0 km/h
278 11-06-2011 07:48:02 11.2 C 9.02 g/m*3 11.2 C 0 km/h
279 11-06-2011 08:00:02 10.8 C 8.8 g/m*3 10.8 C 0 km/h
280 11-06-2011 08:12:02 10.8 C 8.8 g/m*3 10.8 C 0 km/h
281 11-06-2011 08:24:02 12.2 C 9.39 g/m*3 12.2 C 0 km/h
282 11-06-2011 08:36:01 11.9 C 8.9 g/m*3 11.9 C 0 km/h
283 11-06-2011 08:48:02 11.9 C 8.9 g/m*3 11.9 C 0 km/h
284 11-06-2011 09:00:02 11.9 C 8.9 g/m*3 11.9 C 0 km/h
285 11-06-2011 09:12:01 11.9 C 8.9 g/m*3 11.9 C 0 km/h
286 11-06-2011 09:24:02 13.4 C 7.32 g/m*3 13.4 C 0 km/h
287 11-06-2011 09:36:01 13.1 C 6.96 g/m*3 13.1 C 0 km/h
288 11-06-2011 09:48:03 13.5 C 7.49 g/m*3 13.5 C 0 km/h
289 11-06-2011 10:00:03 13.6 C 7.3 g/m*3 13.6 C 0 km/h
290 11-06-2011 10:12:02 13.6 C 7.3 g/m*3 13.6 C 0 km/h
291 11-06-2011 10:24:02 13.6 C 7.3 g/m*3 13.6 C 0 km/h
292 11-06-2011 10:36:02 13.6 C 7.3 g/m*3 13.6 C 0 km/h
293 11-06-2011 10:48:02 13.6 C 7.3 g/m*3 13.6 C 0 km/h
294 11-06-2011 11:00:02 13.6 C 7.3 g/m*3 13.6 C 0 km/h
295 11-06-2011 11:12:01 13.6 C 7.3 g/m*3 13.6 C 0 km/h
296 11-06-2011 11:24:02 13.6 C 7.3 g/m*3 13.6 C 0 km/h
297 11-06-2011 11:36:02 13.6 C 7.3 g/m*3 13.6 C 0 km/h
298 11-06-2011 11:48:01 13.6 C 7.3 g/m*3 13.6 C 0 km/h
299 11-06-2011 12:00:01 13.6 C 7.3 g/m*3 13.6 C 0 km/h
300 11-06-2011 12:12:01 13.6 C 7.3 g/m*3 13.6 C 0 km/h
Sensor: Nr:Datum:Temp:Abs-Feuchte:Windchill:Wind:
Aussen-T/F 301 11-06-2011 12:24:01 13.6 C 7.3 g/m*3 13.6 C 0 km/h
302 11-06-2011 12:36:02 13.6 C 7.3 g/m*3 13.6 C 0 km/h
303 11-06-2011 12:48:02 13.6 C 7.3 g/m*3 13.6 C 0 km/h
304 11-06-2011 13:00:02 17.8 C 5.01 g/m*3 17.8 C 0 km/h
305 11-06-2011 13:12:02 17.8 C 4.71 g/m*3 17.8 C 0 km/h
306 11-06-2011 13:24:01 21.4 C 5.44 g/m*3 21.4 C 0 km/h
307 11-06-2011 13:36:02 22.7 C 4.24 g/m*3 22.7 C 0 km/h
308 11-06-2011 13:48:02 20.2 C 4.9 g/m*3 20.2 C 0 km/h
309 11-06-2011 14:00:02 20.3 C 5.28 g/m*3 20.3 C 0 km/h
310 11-06-2011 14:12:02 23.7 C 5.13 g/m*3 23.7 C 0 km/h
311 11-06-2011 14:24:01 20.8 C 4.89 g/m*3 20.8 C 0 km/h
312 11-06-2011 14:36:02 19.8 C 4.95 g/m*3 19.8 C 0 km/h
313 11-06-2011 14:48:02 21.7 C 4.77 g/m*3 21.7 C 0 km/h
314 11-06-2011 15:00:02 25.9 C 4.84 g/m*3 25.9 C 0 km/h
315 11-06-2011 15:12:02 27.5 C 5.29 g/m*3 27.5 C 0 km/h
316 11-06-2011 15:24:02 27.6 C 5.32 g/m*3 27.6 C 0 km/h
317 11-06-2011 15:36:02 22.5 C 3.99 g/m*3 22.5 C 0 km/h
318 11-06-2011 15:48:02 27.4 C 5.26 g/m*3 27.4 C 0 km/h
319 11-06-2011 16:00:02 26.3 C 4.95 g/m*3 26.3 C 0 km/h
320 11-06-2011 16:12:02 22.7 C 4.04 g/m*3 22.7 C 0 km/h
321 11-06-2011 16:24:02 25.5 C 4.73 g/m*3 25.5 C 0 km/h
322 11-06-2011 16:36:01 25.5 C 4.73 g/m*3 25.5 C 0 km/h
323 11-06-2011 16:48:02 25.5 C 4.73 g/m*3 25.5 C 0 km/h
324 11-06-2011 17:00:02 25.5 C 4.73 g/m*3 25.5 C 0 km/h
325 11-06-2011 17:12:01 25.5 C 4.73 g/m*3 25.5 C 0 km/h
Sensor: Nr:Datum:Temp:Abs-Feuchte:Windchill:Wind:
Aussen-T/F 326 11-06-2011 17:24:01 25.5 C 4.73 g/m*3 25.5 C 0 km/h
327 11-06-2011 17:36:01 25.5 C 4.73 g/m*3 25.5 C 0 km/h
328 11-06-2011 17:48:02 25.5 C 4.73 g/m*3 25.5 C 0 km/h
329 11-06-2011 18:00:03 25.5 C 4.73 g/m*3 25.5 C 0 km/h
330 11-06-2011 18:12:02 25.5 C 4.73 g/m*3 25.5 C 0 km/h
331 11-06-2011 18:24:02 25.5 C 4.73 g/m*3 25.5 C 0 km/h
332 11-06-2011 18:36:02 23.6 C 4.89 g/m*3 23.6 C 0 km/h
333 11-06-2011 18:48:01 23.6 C 4.89 g/m*3 23.6 C 0 km/h
334 11-06-2011 19:00:01 22.1 C 5.27 g/m*3 22.1 C 0 km/h
335 11-06-2011 19:12:02 18.9 C 5.51 g/m*3 18.9 C 0 km/h
336 11-06-2011 19:24:01 18.9 C 5.51 g/m*3 18.9 C 0 km/h
337 11-06-2011 19:36:02 18 C 7.22 g/m*3 18 C 0 km/h
338 11-06-2011 19:48:01 17.6 C 7.8 g/m*3 17.6 C 0 km/h
339 11-06-2011 20:00:01 16.8 C 7.72 g/m*3 16.8 C 0 km/h
340 11-06-2011 20:12:02 16.6 C 7.63 g/m*3 16.6 C 0 km/h
341 11-06-2011 20:24:01 16.2 C 7.86 g/m*3 16.2 C 0 km/h
342 11-06-2011 20:36:02 15.7 C 8.16 g/m*3 15.7 C 0 km/h
343 11-06-2011 20:48:01 15.4 C 7.88 g/m*3 15.4 C 0 km/h
344 11-06-2011 21:00:01 15 C 7.82 g/m*3 15 C 0 km/h
345 11-06-2011 21:12:02 15.8 C 6.6 g/m*3 15.8 C 0 km/h
346 11-06-2011 21:24:01 15.7 C 6.69 g/m*3 15.7 C 0 km/h
347 11-06-2011 21:36:01 15.2 C 6.88 g/m*3 15.2 C 0 km/h
348 11-06-2011 21:48:01 14.9 C 6.88 g/m*3 14.9 C 0 km/h
349 11-06-2011 22:00:01 14.5 C 6.84 g/m*3 14.5 C 0 km/h
350 11-06-2011 22:12:02 14.1 C 7.28 g/m*3 14.1 C 0 km/h
Sensor: Nr:Datum:Temp:Abs-Feuchte:Windchill:Wind:
Aussen-T/F 351 11-06-2011 22:24:02 13.6 C 7.41 g/m*3 13.6 C 0 km/h
352 11-06-2011 22:36:01 12.8 C 7.39 g/m*3 12.8 C 0 km/h
353 11-06-2011 22:49:03 12.4 C 7.54 g/m*3 12.4 C 0 km/h
354 11-06-2011 23:01:03 12.4 C 7.43 g/m*3 12.4 C 0 km/h
355 11-06-2011 23:13:03 12.2 C 7.34 g/m*3 12.2 C 0 km/h
356 11-06-2011 23:25:03 12.1 C 7.4 g/m*3 12.1 C 0 km/h
357 11-06-2011 23:37:04 11.7 C 7.64 g/m*3 11.7 C 0 km/h
358 11-06-2011 23:49:04 11.1 C 7.45 g/m*3 11.1 C 0 km/h

Legende:
   Min
   Max


Maximal/Minimal-Werte vom 09.06.2011 - 11.06.2011

Sensor Min Max Avg
Temp
(Aussen-T/F)
8.6 °C
09-06-2011  06:45:02
27.6 °C
10-06-2011  16:47:03
14.92 °C
Abs-Feuchte
(Aussen-T/F)
3.99 g/m*3
11-06-2011  15:36:02
9.58 g/m*3
09-06-2011  21:34:02
7.83 g/m*3
Windchill
(Aussen-T/F)
8.6 C
09-06-2011  06:45:02
27.6 C
10-06-2011  16:47:03
14.88 C

Die Daten stammen von einer Davis Vantage Pro 2 Wetter-Station und werden unter Linux mit der Software wview2wettercgi und aufbereitet. Alle Angaben erfolgen ohne Gewähr für ihre Vollständigkeit oder Richtigkeit.
Kontakt: Rainer Krienke krienke@uni-koblenz.de . Meine Webseiten an der Uni Koblenz oder privat.
Version: $Revision: 0.78 $